sensor_id;sensor_type;location;lat;lon;timestamp;P1;durP1;ratioP1;P2;durP2;ratioP2
69912;SDS011;57198;52.082;5.108;2023-07-22T00:01:02;16.35;;;10.88;;
69912;SDS011;57198;52.082;5.108;2023-07-22T00:03:29;18.45;;;11.50;;
69912;SDS011;57198;52.082;5.108;2023-07-22T00:06:03;16.43;;;11.50;;
69912;SDS011;57198;52.082;5.108;2023-07-22T00:08:35;15.38;;;10.48;;
69912;SDS011;57198;52.082;5.108;2023-07-22T00:11:04;18.75;;;10.93;;
69912;SDS011;57198;52.082;5.108;2023-07-22T00:13:31;15.43;;;11.50;;
69912;SDS011;57198;52.082;5.108;2023-07-22T00:15:59;18.58;;;11.20;;
69912;SDS011;57198;52.082;5.108;2023-07-22T00:18:26;15.73;;;10.87;;
69912;SDS011;57198;52.082;5.108;2023-07-22T00:20:54;15.98;;;10.90;;
69912;SDS011;57198;52.082;5.108;2023-07-22T00:23:22;18.80;;;11.93;;
69912;SDS011;57198;52.082;5.108;2023-07-22T00:25:49;16.67;;;10.80;;
69912;SDS011;57198;52.082;5.108;2023-07-22T00:28:16;18.38;;;10.73;;
69912;SDS011;57198;52.082;5.108;2023-07-22T00:30:45;16.47;;;10.57;;
69912;SDS011;57198;52.082;5.108;2023-07-22T00:33:12;17.70;;;10.85;;
69912;SDS011;57198;52.082;5.108;2023-07-22T00:35:40;17.95;;;10.70;;
69912;SDS011;57198;52.082;5.108;2023-07-22T00:38:07;15.98;;;10.52;;
69912;SDS011;57198;52.082;5.108;2023-07-22T00:40:36;21.35;;;11.80;;
69912;SDS011;57198;52.082;5.108;2023-07-22T00:43:04;18.13;;;11.33;;
69912;SDS011;57198;52.082;5.108;2023-07-22T00:45:33;19.55;;;12.52;;
69912;SDS011;57198;52.082;5.108;2023-07-22T00:48:01;16.63;;;10.60;;
69912;SDS011;57198;52.082;5.108;2023-07-22T00:50:29;16.85;;;11.40;;
69912;SDS011;57198;52.082;5.108;2023-07-22T00:52:56;18.17;;;11.60;;
69912;SDS011;57198;52.082;5.108;2023-07-22T00:55:24;18.30;;;11.00;;
69912;SDS011;57198;52.082;5.108;2023-07-22T00:57:52;22.65;;;12.20;;
69912;SDS011;57198;52.082;5.108;2023-07-22T01:00:19;18.92;;;11.32;;
69912;SDS011;57198;52.082;5.108;2023-07-22T01:02:47;19.05;;;12.90;;
69912;SDS011;57198;52.082;5.108;2023-07-22T01:05:14;19.60;;;12.57;;
69912;SDS011;57198;52.082;5.108;2023-07-22T01:07:42;16.90;;;11.43;;
69912;SDS011;57198;52.082;5.108;2023-07-22T01:10:10;19.27;;;11.10;;
69912;SDS011;57198;52.082;5.108;2023-07-22T01:12:37;18.60;;;12.27;;
69912;SDS011;57198;52.082;5.108;2023-07-22T01:15:05;17.35;;;11.63;;
69912;SDS011;57198;52.082;5.108;2023-07-22T01:17:36;16.73;;;10.90;;
69912;SDS011;57198;52.082;5.108;2023-07-22T01:20:04;18.37;;;11.70;;
69912;SDS011;57198;52.082;5.108;2023-07-22T01:22:32;16.00;;;11.52;;
69912;SDS011;57198;52.082;5.108;2023-07-22T01:25:00;17.45;;;11.45;;
69912;SDS011;57198;52.082;5.108;2023-07-22T01:27:28;18.92;;;11.25;;
69912;SDS011;57198;52.082;5.108;2023-07-22T01:29:56;18.17;;;11.35;;
69912;SDS011;57198;52.082;5.108;2023-07-22T01:32:23;16.33;;;10.73;;
69912;SDS011;57198;52.082;5.108;2023-07-22T01:34:50;16.70;;;11.18;;
69912;SDS011;57198;52.082;5.108;2023-07-22T01:37:18;19.55;;;11.27;;
69912;SDS011;57198;52.082;5.108;2023-07-22T01:39:45;17.05;;;11.43;;
69912;SDS011;57198;52.082;5.108;2023-07-22T01:42:12;17.58;;;11.70;;
69912;SDS011;57198;52.082;5.108;2023-07-22T01:44:40;17.60;;;11.87;;
69912;SDS011;57198;52.082;5.108;2023-07-22T01:47:07;17.95;;;11.70;;
69912;SDS011;57198;52.082;5.108;2023-07-22T01:49:34;19.45;;;11.70;;
69912;SDS011;57198;52.082;5.108;2023-07-22T01:52:02;18.13;;;11.27;;
69912;SDS011;57198;52.082;5.108;2023-07-22T01:54:29;17.70;;;11.73;;
69912;SDS011;57198;52.082;5.108;2023-07-22T01:56:57;17.80;;;11.27;;
69912;SDS011;57198;52.082;5.108;2023-07-22T01:59:24;17.80;;;11.18;;
69912;SDS011;57198;52.082;5.108;2023-07-22T02:01:52;18.77;;;11.68;;
69912;SDS011;57198;52.082;5.108;2023-07-22T02:04:19;20.13;;;11.70;;
69912;SDS011;57198;52.082;5.108;2023-07-22T02:06:47;18.83;;;11.73;;
69912;SDS011;57198;52.082;5.108;2023-07-22T02:09:14;17.53;;;11.97;;
69912;SDS011;57198;52.082;5.108;2023-07-22T02:11:42;21.20;;;12.27;;
69912;SDS011;57198;52.082;5.108;2023-07-22T02:14:09;17.25;;;10.85;;
69912;SDS011;57198;52.082;5.108;2023-07-22T02:16:36;17.42;;;11.77;;
69912;SDS011;57198;52.082;5.108;2023-07-22T02:19:04;18.98;;;11.93;;
69912;SDS011;57198;52.082;5.108;2023-07-22T02:21:39;18.47;;;12.23;;
69912;SDS011;57198;52.082;5.108;2023-07-22T02:24:07;18.35;;;11.45;;
69912;SDS011;57198;52.082;5.108;2023-07-22T02:26:34;16.85;;;11.45;;
69912;SDS011;57198;52.082;5.108;2023-07-22T02:29:02;16.63;;;11.45;;
69912;SDS011;57198;52.082;5.108;2023-07-22T02:31:29;15.35;;;11.70;;
69912;SDS011;57198;52.082;5.108;2023-07-22T02:33:57;19.70;;;12.03;;
69912;SDS011;57198;52.082;5.108;2023-07-22T02:36:24;18.25;;;11.35;;
69912;SDS011;57198;52.082;5.108;2023-07-22T02:38:52;16.77;;;11.40;;
69912;SDS011;57198;52.082;5.108;2023-07-22T02:41:19;15.07;;;10.27;;
69912;SDS011;57198;52.082;5.108;2023-07-22T02:43:48;18.58;;;10.90;;
69912;SDS011;57198;52.082;5.108;2023-07-22T02:46:15;17.27;;;10.73;;
69912;SDS011;57198;52.082;5.108;2023-07-22T02:48:42;16.35;;;10.25;;
69912;SDS011;57198;52.082;5.108;2023-07-22T02:51:10;14.65;;;9.45;;
69912;SDS011;57198;52.082;5.108;2023-07-22T02:53:37;14.55;;;9.23;;
69912;SDS011;57198;52.082;5.108;2023-07-22T02:56:05;14.77;;;9.27;;
69912;SDS011;57198;52.082;5.108;2023-07-22T02:58:33;14.63;;;9.33;;
69912;SDS011;57198;52.082;5.108;2023-07-22T03:01:02;15.07;;;9.13;;
69912;SDS011;57198;52.082;5.108;2023-07-22T03:03:31;14.13;;;8.90;;
69912;SDS011;57198;52.082;5.108;2023-07-22T03:06:01;16.23;;;10.07;;
69912;SDS011;57198;52.082;5.108;2023-07-22T03:08:30;14.00;;;9.50;;
69912;SDS011;57198;52.082;5.108;2023-07-22T03:10:57;15.17;;;9.50;;
69912;SDS011;57198;52.082;5.108;2023-07-22T03:13:24;15.25;;;9.82;;
69912;SDS011;57198;52.082;5.108;2023-07-22T03:15:56;14.70;;;9.57;;
69912;SDS011;57198;52.082;5.108;2023-07-22T03:18:25;12.85;;;9.13;;
69912;SDS011;57198;52.082;5.108;2023-07-22T03:20:52;14.65;;;9.63;;
69912;SDS011;57198;52.082;5.108;2023-07-22T03:23:19;13.37;;;8.90;;
69912;SDS011;57198;52.082;5.108;2023-07-22T03:25:47;13.20;;;8.60;;
69912;SDS011;57198;52.082;5.108;2023-07-22T03:28:14;12.68;;;8.80;;
69912;SDS011;57198;52.082;5.108;2023-07-22T03:30:43;13.07;;;8.32;;
69912;SDS011;57198;52.082;5.108;2023-07-22T03:33:10;14.23;;;7.97;;
69912;SDS011;57198;52.082;5.108;2023-07-22T03:35:37;12.43;;;8.17;;
69912;SDS011;57198;52.082;5.108;2023-07-22T03:38:07;12.10;;;7.88;;
69912;SDS011;57198;52.082;5.108;2023-07-22T03:40:34;10.77;;;7.25;;
69912;SDS011;57198;52.082;5.108;2023-07-22T03:43:02;10.95;;;7.53;;
69912;SDS011;57198;52.082;5.108;2023-07-22T03:45:29;12.10;;;7.22;;
69912;SDS011;57198;52.082;5.108;2023-07-22T03:47:57;10.63;;;7.10;;
69912;SDS011;57198;52.082;5.108;2023-07-22T03:50:25;10.85;;;6.78;;
69912;SDS011;57198;52.082;5.108;2023-07-22T03:52:53;13.10;;;6.65;;
69912;SDS011;57198;52.082;5.108;2023-07-22T03:55:20;10.73;;;6.35;;
69912;SDS011;57198;52.082;5.108;2023-07-22T03:57:48;9.13;;;7.22;;
69912;SDS011;57198;52.082;5.108;2023-07-22T04:00:15;7.90;;;6.50;;
69912;SDS011;57198;52.082;5.108;2023-07-22T04:02:42;8.82;;;6.25;;
69912;SDS011;57198;52.082;5.108;2023-07-22T04:05:10;12.23;;;6.60;;
69912;SDS011;57198;52.082;5.108;2023-07-22T04:07:38;10.35;;;7.03;;
69912;SDS011;57198;52.082;5.108;2023-07-22T04:10:05;9.63;;;6.38;;
69912;SDS011;57198;52.082;5.108;2023-07-22T04:12:33;11.00;;;7.10;;
69912;SDS011;57198;52.082;5.108;2023-07-22T04:15:00;11.25;;;7.38;;
69912;SDS011;57198;52.082;5.108;2023-07-22T04:17:28;12.00;;;8.15;;
69912;SDS011;57198;52.082;5.108;2023-07-22T04:19:56;12.90;;;7.43;;
69912;SDS011;57198;52.082;5.108;2023-07-22T04:22:23;12.50;;;7.93;;
69912;SDS011;57198;52.082;5.108;2023-07-22T04:24:50;12.63;;;7.47;;
69912;SDS011;57198;52.082;5.108;2023-07-22T04:27:19;14.38;;;8.18;;
69912;SDS011;57198;52.082;5.108;2023-07-22T04:29:47;13.93;;;8.73;;
69912;SDS011;57198;52.082;5.108;2023-07-22T04:32:14;16.23;;;9.32;;
69912;SDS011;57198;52.082;5.108;2023-07-22T04:34:42;17.77;;;9.35;;
69912;SDS011;57198;52.082;5.108;2023-07-22T04:37:09;15.03;;;9.43;;
69912;SDS011;57198;52.082;5.108;2023-07-22T04:39:37;15.05;;;9.02;;
69912;SDS011;57198;52.082;5.108;2023-07-22T04:42:04;18.77;;;10.68;;
69912;SDS011;57198;52.082;5.108;2023-07-22T04:44:31;17.40;;;10.07;;
69912;SDS011;57198;52.082;5.108;2023-07-22T04:46:59;17.98;;;9.88;;
69912;SDS011;57198;52.082;5.108;2023-07-22T04:49:26;16.67;;;10.33;;
69912;SDS011;57198;52.082;5.108;2023-07-22T04:51:54;18.48;;;10.55;;
69912;SDS011;57198;52.082;5.108;2023-07-22T04:54:22;17.88;;;10.35;;
69912;SDS011;57198;52.082;5.108;2023-07-22T04:56:49;20.52;;;10.55;;
69912;SDS011;57198;52.082;5.108;2023-07-22T04:59:16;20.25;;;11.15;;
69912;SDS011;57198;52.082;5.108;2023-07-22T05:01:44;19.57;;;11.30;;
69912;SDS011;57198;52.082;5.108;2023-07-22T05:04:11;22.20;;;11.48;;
69912;SDS011;57198;52.082;5.108;2023-07-22T05:06:39;23.15;;;12.68;;
69912;SDS011;57198;52.082;5.108;2023-07-22T05:09:07;23.15;;;12.27;;
69912;SDS011;57198;52.082;5.108;2023-07-22T05:11:34;25.33;;;12.65;;
69912;SDS011;57198;52.082;5.108;2023-07-22T05:14:01;27.80;;;13.60;;
69912;SDS011;57198;52.082;5.108;2023-07-22T05:16:29;21.10;;;12.15;;
69912;SDS011;57198;52.082;5.108;2023-07-22T05:18:57;23.50;;;12.73;;
69912;SDS011;57198;52.082;5.108;2023-07-22T05:21:24;24.98;;;12.57;;
69912;SDS011;57198;52.082;5.108;2023-07-22T05:23:51;25.67;;;12.38;;
69912;SDS011;57198;52.082;5.108;2023-07-22T05:26:18;23.43;;;12.73;;
69912;SDS011;57198;52.082;5.108;2023-07-22T05:28:46;22.73;;;13.07;;
69912;SDS011;57198;52.082;5.108;2023-07-22T05:31:13;30.00;;;14.25;;
69912;SDS011;57198;52.082;5.108;2023-07-22T05:33:40;26.70;;;14.02;;
69912;SDS011;57198;52.082;5.108;2023-07-22T05:36:08;27.85;;;12.82;;
69912;SDS011;57198;52.082;5.108;2023-07-22T05:38:35;24.33;;;13.30;;
69912;SDS011;57198;52.082;5.108;2023-07-22T05:41:02;26.63;;;13.77;;
69912;SDS011;57198;52.082;5.108;2023-07-22T05:43:30;24.88;;;13.85;;
69912;SDS011;57198;52.082;5.108;2023-07-22T05:45:57;26.17;;;14.57;;
69912;SDS011;57198;52.082;5.108;2023-07-22T05:48:24;24.48;;;13.75;;
69912;SDS011;57198;52.082;5.108;2023-07-22T05:50:52;27.03;;;14.13;;
69912;SDS011;57198;52.082;5.108;2023-07-22T05:53:19;22.27;;;13.57;;
69912;SDS011;57198;52.082;5.108;2023-07-22T05:55:46;25.88;;;14.65;;
69912;SDS011;57198;52.082;5.108;2023-07-22T05:58:17;27.52;;;13.80;;
69912;SDS011;57198;52.082;5.108;2023-07-22T06:00:45;26.00;;;13.98;;
69912;SDS011;57198;52.082;5.108;2023-07-22T06:03:17;25.30;;;14.87;;
69912;SDS011;57198;52.082;5.108;2023-07-22T06:05:45;21.95;;;12.90;;
69912;SDS011;57198;52.082;5.108;2023-07-22T06:08:13;25.73;;;14.25;;
69912;SDS011;57198;52.082;5.108;2023-07-22T06:10:40;26.13;;;13.93;;
69912;SDS011;57198;52.082;5.108;2023-07-22T06:13:08;27.50;;;13.93;;
69912;SDS011;57198;52.082;5.108;2023-07-22T06:15:35;23.40;;;13.80;;
69912;SDS011;57198;52.082;5.108;2023-07-22T06:18:02;22.38;;;13.38;;
69912;SDS011;57198;52.082;5.108;2023-07-22T06:20:34;27.27;;;14.15;;
69912;SDS011;57198;52.082;5.108;2023-07-22T06:23:02;28.13;;;13.20;;
69912;SDS011;57198;52.082;5.108;2023-07-22T06:25:29;27.17;;;13.88;;
69912;SDS011;57198;52.082;5.108;2023-07-22T06:27:57;24.63;;;13.80;;
69912;SDS011;57198;52.082;5.108;2023-07-22T06:30:24;28.35;;;13.98;;
69912;SDS011;57198;52.082;5.108;2023-07-22T06:32:51;27.13;;;14.20;;
69912;SDS011;57198;52.082;5.108;2023-07-22T06:35:19;24.13;;;13.68;;
69912;SDS011;57198;52.082;5.108;2023-07-22T06:37:46;23.83;;;13.75;;
69912;SDS011;57198;52.082;5.108;2023-07-22T06:40:14;21.73;;;13.50;;
69912;SDS011;57198;52.082;5.108;2023-07-22T06:42:41;22.20;;;12.50;;
69912;SDS011;57198;52.082;5.108;2023-07-22T06:45:08;26.17;;;13.02;;
69912;SDS011;57198;52.082;5.108;2023-07-22T06:47:36;22.20;;;13.32;;
69912;SDS011;57198;52.082;5.108;2023-07-22T06:50:03;22.83;;;13.18;;
69912;SDS011;57198;52.082;5.108;2023-07-22T06:52:31;29.63;;;13.63;;
69912;SDS011;57198;52.082;5.108;2023-07-22T06:54:59;26.73;;;13.43;;
69912;SDS011;57198;52.082;5.108;2023-07-22T06:57:26;20.70;;;12.25;;
69912;SDS011;57198;52.082;5.108;2023-07-22T06:59:54;24.67;;;13.13;;
69912;SDS011;57198;52.082;5.108;2023-07-22T07:02:21;25.17;;;12.90;;
69912;SDS011;57198;52.082;5.108;2023-07-22T07:04:49;21.40;;;12.33;;
69912;SDS011;57198;52.082;5.108;2023-07-22T07:07:16;27.02;;;13.88;;
69912;SDS011;57198;52.082;5.108;2023-07-22T07:09:44;19.73;;;12.00;;
69912;SDS011;57198;52.082;5.108;2023-07-22T07:12:11;22.85;;;13.48;;
69912;SDS011;57198;52.082;5.108;2023-07-22T07:14:38;23.42;;;12.80;;
69912;SDS011;57198;52.082;5.108;2023-07-22T07:17:06;19.30;;;12.33;;
69912;SDS011;57198;52.082;5.108;2023-07-22T07:19:33;24.02;;;13.52;;
69912;SDS011;57198;52.082;5.108;2023-07-22T07:22:00;25.15;;;12.98;;
69912;SDS011;57198;52.082;5.108;2023-07-22T07:24:28;23.67;;;12.85;;
69912;SDS011;57198;52.082;5.108;2023-07-22T07:26:55;22.45;;;12.65;;
69912;SDS011;57198;52.082;5.108;2023-07-22T07:29:23;18.67;;;11.40;;
69912;SDS011;57198;52.082;5.108;2023-07-22T07:32:10;22.15;;;12.02;;
69912;SDS011;57198;52.082;5.108;2023-07-22T07:34:37;21.30;;;12.27;;
69912;SDS011;57198;52.082;5.108;2023-07-22T07:37:05;19.58;;;11.85;;
69912;SDS011;57198;52.082;5.108;2023-07-22T07:39:33;22.00;;;11.55;;
69912;SDS011;57198;52.082;5.108;2023-07-22T07:42:00;19.47;;;11.13;;
69912;SDS011;57198;52.082;5.108;2023-07-22T07:44:27;18.23;;;11.32;;
69912;SDS011;57198;52.082;5.108;2023-07-22T07:46:55;19.02;;;10.73;;
69912;SDS011;57198;52.082;5.108;2023-07-22T07:49:22;25.10;;;12.45;;
69912;SDS011;57198;52.082;5.108;2023-07-22T07:51:50;18.55;;;11.57;;
69912;SDS011;57198;52.082;5.108;2023-07-22T07:54:17;20.80;;;11.77;;
69912;SDS011;57198;52.082;5.108;2023-07-22T07:56:45;19.13;;;11.65;;
69912;SDS011;57198;52.082;5.108;2023-07-22T07:59:12;15.68;;;9.57;;
69912;SDS011;57198;52.082;5.108;2023-07-22T08:01:39;21.58;;;10.52;;
69912;SDS011;57198;52.082;5.108;2023-07-22T08:04:08;19.73;;;10.77;;
69912;SDS011;57198;52.082;5.108;2023-07-22T08:06:36;20.27;;;12.50;;
69912;SDS011;57198;52.082;5.108;2023-07-22T08:09:04;19.65;;;11.50;;
69912;SDS011;57198;52.082;5.108;2023-07-22T08:11:32;19.70;;;11.98;;
69912;SDS011;57198;52.082;5.108;2023-07-22T08:13:59;26.15;;;13.30;;
69912;SDS011;57198;52.082;5.108;2023-07-22T08:16:28;19.42;;;11.95;;
69912;SDS011;57198;52.082;5.108;2023-07-22T08:18:56;16.83;;;10.57;;
69912;SDS011;57198;52.082;5.108;2023-07-22T08:21:23;18.17;;;11.10;;
69912;SDS011;57198;52.082;5.108;2023-07-22T08:23:50;17.27;;;11.13;;
69912;SDS011;57198;52.082;5.108;2023-07-22T08:26:18;18.35;;;11.20;;
69912;SDS011;57198;52.082;5.108;2023-07-22T08:28:47;14.18;;;10.57;;
69912;SDS011;57198;52.082;5.108;2023-07-22T08:31:15;18.70;;;10.40;;
69912;SDS011;57198;52.082;5.108;2023-07-22T08:33:42;17.00;;;10.60;;
69912;SDS011;57198;52.082;5.108;2023-07-22T08:36:09;15.48;;;9.70;;
69912;SDS011;57198;52.082;5.108;2023-07-22T08:38:37;18.65;;;9.25;;
69912;SDS011;57198;52.082;5.108;2023-07-22T08:41:04;13.05;;;8.93;;
69912;SDS011;57198;52.082;5.108;2023-07-22T08:43:32;15.33;;;8.37;;
69912;SDS011;57198;52.082;5.108;2023-07-22T08:46:01;12.45;;;8.70;;
69912;SDS011;57198;52.082;5.108;2023-07-22T08:48:30;12.60;;;7.57;;
69912;SDS011;57198;52.082;5.108;2023-07-22T08:51:10;13.70;;;8.63;;
69912;SDS011;57198;52.082;5.108;2023-07-22T08:53:39;14.85;;;7.35;;
69912;SDS011;57198;52.082;5.108;2023-07-22T08:56:09;11.27;;;6.07;;
69912;SDS011;57198;52.082;5.108;2023-07-22T08:58:37;13.80;;;7.05;;
69912;SDS011;57198;52.082;5.108;2023-07-22T09:01:05;15.82;;;6.90;;
69912;SDS011;57198;52.082;5.108;2023-07-22T09:03:34;10.68;;;7.00;;
69912;SDS011;57198;52.082;5.108;2023-07-22T09:06:01;9.23;;;6.45;;
69912;SDS011;57198;52.082;5.108;2023-07-22T09:08:31;9.83;;;6.07;;
69912;SDS011;57198;52.082;5.108;2023-07-22T09:10:59;13.93;;;7.38;;
69912;SDS011;57198;52.082;5.108;2023-07-22T09:13:26;11.38;;;6.18;;
69912;SDS011;57198;52.082;5.108;2023-07-22T09:15:56;12.40;;;7.30;;
69912;SDS011;57198;52.082;5.108;2023-07-22T09:18:25;8.45;;;5.70;;
69912;SDS011;57198;52.082;5.108;2023-07-22T09:20:52;12.33;;;5.80;;
69912;SDS011;57198;52.082;5.108;2023-07-22T09:23:31;11.38;;;6.45;;
69912;SDS011;57198;52.082;5.108;2023-07-22T09:26:07;11.60;;;6.07;;
69912;SDS011;57198;52.082;5.108;2023-07-22T09:28:54;7.95;;;5.15;;
69912;SDS011;57198;52.082;5.108;2023-07-22T09:31:22;6.88;;;5.60;;
69912;SDS011;57198;52.082;5.108;2023-07-22T09:33:50;7.63;;;4.80;;
69912;SDS011;57198;52.082;5.108;2023-07-22T09:36:17;12.98;;;5.10;;
69912;SDS011;57198;52.082;5.108;2023-07-22T09:38:45;6.93;;;4.90;;
69912;SDS011;57198;52.082;5.108;2023-07-22T09:41:12;7.63;;;6.05;;
69912;SDS011;57198;52.082;5.108;2023-07-22T09:43:46;9.65;;;5.82;;
69912;SDS011;57198;52.082;5.108;2023-07-22T09:46:14;9.93;;;5.33;;
69912;SDS011;57198;52.082;5.108;2023-07-22T09:48:51;7.75;;;5.03;;
69912;SDS011;57198;52.082;5.108;2023-07-22T09:51:20;8.07;;;4.70;;
69912;SDS011;57198;52.082;5.108;2023-07-22T09:53:47;7.30;;;4.38;;
69912;SDS011;57198;52.082;5.108;2023-07-22T09:56:15;6.63;;;4.53;;
69912;SDS011;57198;52.082;5.108;2023-07-22T09:58:42;7.80;;;5.00;;
69912;SDS011;57198;52.082;5.108;2023-07-22T10:01:12;8.27;;;5.35;;
69912;SDS011;57198;52.082;5.108;2023-07-22T10:03:41;6.03;;;4.68;;
69912;SDS011;57198;52.082;5.108;2023-07-22T10:06:10;7.75;;;4.78;;
69912;SDS011;57198;52.082;5.108;2023-07-22T10:08:37;7.78;;;4.60;;
69912;SDS011;57198;52.082;5.108;2023-07-22T10:11:05;8.67;;;4.27;;
69912;SDS011;57198;52.082;5.108;2023-07-22T10:13:33;5.90;;;4.13;;
69912;SDS011;57198;52.082;5.108;2023-07-22T10:16:00;6.78;;;4.47;;
69912;SDS011;57198;52.082;5.108;2023-07-22T10:18:29;7.90;;;4.20;;
69912;SDS011;57198;52.082;5.108;2023-07-22T10:20:57;5.32;;;3.85;;
69912;SDS011;57198;52.082;5.108;2023-07-22T10:23:25;9.30;;;4.60;;
69912;SDS011;57198;52.082;5.108;2023-07-22T10:25:53;9.18;;;4.63;;
69912;SDS011;57198;52.082;5.108;2023-07-22T10:28:23;7.47;;;4.63;;
69912;SDS011;57198;52.082;5.108;2023-07-22T10:30:53;6.65;;;4.35;;
69912;SDS011;57198;52.082;5.108;2023-07-22T10:33:21;7.03;;;4.07;;
69912;SDS011;57198;52.082;5.108;2023-07-22T10:38:34;6.22;;;4.13;;
69912;SDS011;57198;52.082;5.108;2023-07-22T10:41:11;6.25;;;3.83;;
69912;SDS011;57198;52.082;5.108;2023-07-22T10:43:38;6.85;;;3.70;;
69912;SDS011;57198;52.082;5.108;2023-07-22T10:46:10;5.53;;;4.07;;
69912;SDS011;57198;52.082;5.108;2023-07-22T10:48:41;6.57;;;3.60;;
69912;SDS011;57198;52.082;5.108;2023-07-22T10:51:12;8.02;;;4.18;;
69912;SDS011;57198;52.082;5.108;2023-07-22T10:53:45;5.65;;;3.90;;
69912;SDS011;57198;52.082;5.108;2023-07-22T10:56:20;8.82;;;4.38;;
69912;SDS011;57198;52.082;5.108;2023-07-22T11:04:38;7.22;;;3.95;;
69912;SDS011;57198;52.082;5.108;2023-07-22T11:14:29;3.60;;;2.90;;
69912;SDS011;57198;52.082;5.108;2023-07-22T11:16:57;3.85;;;2.30;;
69912;SDS011;57198;52.082;5.108;2023-07-22T11:19:25;4.93;;;3.05;;
69912;SDS011;57198;52.082;5.108;2023-07-22T11:21:53;4.75;;;2.78;;
69912;SDS011;57198;52.082;5.108;2023-07-22T11:24:22;3.92;;;2.83;;
69912;SDS011;57198;52.082;5.108;2023-07-22T11:26:50;6.23;;;3.67;;
69912;SDS011;57198;52.082;5.108;2023-07-22T11:29:17;7.07;;;2.92;;
69912;SDS011;57198;52.082;5.108;2023-07-22T11:31:46;9.13;;;2.88;;
69912;SDS011;57198;52.082;5.108;2023-07-22T11:34:14;7.43;;;3.88;;
69912;SDS011;57198;52.082;5.108;2023-07-22T11:36:42;6.57;;;3.15;;
69912;SDS011;57198;52.082;5.108;2023-07-22T11:39:11;7.90;;;3.73;;
69912;SDS011;57198;52.082;5.108;2023-07-22T11:41:42;7.97;;;3.60;;
69912;SDS011;57198;52.082;5.108;2023-07-22T11:44:10;5.03;;;3.17;;
69912;SDS011;57198;52.082;5.108;2023-07-22T11:49:24;9.35;;;4.20;;
69912;SDS011;57198;52.082;5.108;2023-07-22T11:51:56;6.47;;;4.10;;
69912;SDS011;57198;52.082;5.108;2023-07-22T11:54:23;5.22;;;4.32;;
69912;SDS011;57198;52.082;5.108;2023-07-22T11:56:51;5.78;;;3.60;;
69912;SDS011;57198;52.082;5.108;2023-07-22T11:59:31;9.23;;;4.75;;
69912;SDS011;57198;52.082;5.108;2023-07-22T12:01:59;7.38;;;4.25;;
69912;SDS011;57198;52.082;5.108;2023-07-22T12:04:27;7.57;;;4.20;;
69912;SDS011;57198;52.082;5.108;2023-07-22T12:06:55;9.93;;;3.70;;
69912;SDS011;57198;52.082;5.108;2023-07-22T12:09:22;5.40;;;3.40;;
69912;SDS011;57198;52.082;5.108;2023-07-22T12:12:00;5.80;;;3.97;;
69912;SDS011;57198;52.082;5.108;2023-07-22T12:14:34;10.10;;;3.90;;
69912;SDS011;57198;52.082;5.108;2023-07-22T12:17:02;12.70;;;4.67;;
69912;SDS011;57198;52.082;5.108;2023-07-22T12:19:29;8.30;;;4.05;;
69912;SDS011;57198;52.082;5.108;2023-07-22T12:21:57;6.35;;;3.67;;
69912;SDS011;57198;52.082;5.108;2023-07-22T12:24:24;5.72;;;4.22;;
69912;SDS011;57198;52.082;5.108;2023-07-22T12:26:51;7.72;;;5.05;;
69912;SDS011;57198;52.082;5.108;2023-07-22T12:29:19;9.10;;;4.60;;
69912;SDS011;57198;52.082;5.108;2023-07-22T12:31:46;7.03;;;4.65;;
69912;SDS011;57198;52.082;5.108;2023-07-22T12:34:14;9.50;;;4.32;;
69912;SDS011;57198;52.082;5.108;2023-07-22T12:36:41;7.82;;;3.60;;
69912;SDS011;57198;52.082;5.108;2023-07-22T12:39:08;8.05;;;4.38;;
69912;SDS011;57198;52.082;5.108;2023-07-22T12:41:37;7.77;;;4.03;;
69912;SDS011;57198;52.082;5.108;2023-07-22T12:44:04;8.45;;;4.10;;
69912;SDS011;57198;52.082;5.108;2023-07-22T12:46:32;4.60;;;3.95;;
69912;SDS011;57198;52.082;5.108;2023-07-22T12:48:59;6.97;;;3.13;;
69912;SDS011;57198;52.082;5.108;2023-07-22T12:51:26;3.78;;;2.75;;
69912;SDS011;57198;52.082;5.108;2023-07-22T12:53:54;6.70;;;2.73;;
69912;SDS011;57198;52.082;5.108;2023-07-22T12:56:22;4.28;;;2.58;;
69912;SDS011;57198;52.082;5.108;2023-07-22T12:58:49;5.22;;;2.50;;
69912;SDS011;57198;52.082;5.108;2023-07-22T13:01:16;5.93;;;2.70;;
69912;SDS011;57198;52.082;5.108;2023-07-22T13:03:44;3.42;;;2.58;;
69912;SDS011;57198;52.082;5.108;2023-07-22T13:06:11;2.60;;;2.03;;
69912;SDS011;57198;52.082;5.108;2023-07-22T13:08:38;5.13;;;2.42;;
69912;SDS011;57198;52.082;5.108;2023-07-22T13:11:06;2.35;;;2.00;;
69912;SDS011;57198;52.082;5.108;2023-07-22T13:13:33;5.10;;;2.25;;
69912;SDS011;57198;52.082;5.108;2023-07-22T13:16:00;6.85;;;1.88;;
69912;SDS011;57198;52.082;5.108;2023-07-22T13:18:28;3.40;;;1.97;;
69912;SDS011;57198;52.082;5.108;2023-07-22T13:20:55;4.28;;;2.10;;
69912;SDS011;57198;52.082;5.108;2023-07-22T13:23:23;4.75;;;2.17;;
69912;SDS011;57198;52.082;5.108;2023-07-22T13:25:50;3.60;;;2.40;;
69912;SDS011;57198;52.082;5.108;2023-07-22T13:28:17;3.72;;;2.05;;
69912;SDS011;57198;52.082;5.108;2023-07-22T13:30:44;4.33;;;2.07;;
69912;SDS011;57198;52.082;5.108;2023-07-22T13:33:12;3.50;;;2.28;;
69912;SDS011;57198;52.082;5.108;2023-07-22T13:35:39;3.22;;;2.13;;
69912;SDS011;57198;52.082;5.108;2023-07-22T13:38:06;6.07;;;3.03;;
69912;SDS011;57198;52.082;5.108;2023-07-22T13:40:34;1.77;;;1.67;;
69912;SDS011;57198;52.082;5.108;2023-07-22T13:43:01;2.77;;;2.23;;
69912;SDS011;57198;52.082;5.108;2023-07-22T13:45:29;4.05;;;1.80;;
69912;SDS011;57198;52.082;5.108;2023-07-22T13:47:56;2.88;;;1.98;;
69912;SDS011;57198;52.082;5.108;2023-07-22T13:50:23;3.67;;;2.00;;
69912;SDS011;57198;52.082;5.108;2023-07-22T13:52:51;2.58;;;1.75;;
69912;SDS011;57198;52.082;5.108;2023-07-22T13:55:18;2.97;;;2.43;;
69912;SDS011;57198;52.082;5.108;2023-07-22T13:57:45;3.05;;;2.10;;
69912;SDS011;57198;52.082;5.108;2023-07-22T14:00:13;3.40;;;2.10;;
69912;SDS011;57198;52.082;5.108;2023-07-22T14:02:41;6.68;;;2.28;;
69912;SDS011;57198;52.082;5.108;2023-07-22T14:05:08;4.43;;;2.22;;
69912;SDS011;57198;52.082;5.108;2023-07-22T14:07:36;4.20;;;1.83;;
69912;SDS011;57198;52.082;5.108;2023-07-22T14:10:04;3.83;;;2.17;;
69912;SDS011;57198;52.082;5.108;2023-07-22T14:12:32;3.15;;;2.00;;
69912;SDS011;57198;52.082;5.108;2023-07-22T14:14:59;2.70;;;1.90;;
69912;SDS011;57198;52.082;5.108;2023-07-22T14:17:27;4.22;;;1.92;;
69912;SDS011;57198;52.082;5.108;2023-07-22T14:19:54;4.90;;;1.83;;
69912;SDS011;57198;52.082;5.108;2023-07-22T14:22:21;2.78;;;2.42;;
69912;SDS011;57198;52.082;5.108;2023-07-22T14:24:49;4.82;;;2.13;;
69912;SDS011;57198;52.082;5.108;2023-07-22T14:27:16;5.30;;;2.40;;
69912;SDS011;57198;52.082;5.108;2023-07-22T14:29:43;4.30;;;2.17;;
69912;SDS011;57198;52.082;5.108;2023-07-22T14:32:11;2.53;;;2.03;;
69912;SDS011;57198;52.082;5.108;2023-07-22T14:34:38;2.63;;;1.92;;
69912;SDS011;57198;52.082;5.108;2023-07-22T14:37:05;4.50;;;1.92;;
69912;SDS011;57198;52.082;5.108;2023-07-22T14:39:33;7.28;;;2.00;;
69912;SDS011;57198;52.082;5.108;2023-07-22T14:42:00;3.63;;;2.17;;
69912;SDS011;57198;52.082;5.108;2023-07-22T14:44:28;2.87;;;2.43;;
69912;SDS011;57198;52.082;5.108;2023-07-22T14:46:56;2.58;;;2.30;;
69912;SDS011;57198;52.082;5.108;2023-07-22T14:49:23;4.00;;;1.90;;
69912;SDS011;57198;52.082;5.108;2023-07-22T14:51:50;4.28;;;2.30;;
69912;SDS011;57198;52.082;5.108;2023-07-22T14:54:18;4.45;;;2.50;;
69912;SDS011;57198;52.082;5.108;2023-07-22T14:56:45;5.37;;;1.90;;